sensor_id;sensor_type;location;lat;lon;timestamp;pressure;altitude;pressure_sealevel;temperature;humidity
19086;BME280;9675;51.538;6.728;2023-07-20T00:02:04;101021.69;;;21.41;75.46
19086;BME280;9675;51.538;6.728;2023-07-20T00:04:33;101019.94;;;21.38;76.04
19086;BME280;9675;51.538;6.728;2023-07-20T00:07:00;101019.03;;;21.36;76.05
19086;BME280;9675;51.538;6.728;2023-07-20T00:09:27;101021.63;;;21.35;77.52
19086;BME280;9675;51.538;6.728;2023-07-20T00:11:55;101019.00;;;21.32;77.55
19086;BME280;9675;51.538;6.728;2023-07-20T00:14:22;101018.97;;;21.30;77.52
19086;BME280;9675;51.538;6.728;2023-07-20T00:16:51;101017.25;;;21.29;77.71
19086;BME280;9675;51.538;6.728;2023-07-20T00:19:23;101014.63;;;21.29;77.48
19086;BME280;9675;51.538;6.728;2023-07-20T00:21:50;101016.34;;;21.27;77.27
19086;BME280;9675;51.538;6.728;2023-07-20T00:24:17;101010.22;;;21.25;77.83
19086;BME280;9675;51.538;6.728;2023-07-20T00:26:44;101007.59;;;21.25;77.39
19086;BME280;9675;51.538;6.728;2023-07-20T00:29:12;101005.84;;;21.23;77.47
19086;BME280;9675;51.538;6.728;2023-07-20T00:31:39;101007.56;;;21.22;77.40
19086;BME280;9675;51.538;6.728;2023-07-20T00:34:06;101004.06;;;21.20;77.59
19086;BME280;9675;51.538;6.728;2023-07-20T00:36:34;101001.44;;;21.18;77.81
19086;BME280;9675;51.538;6.728;2023-07-20T00:39:02;101001.41;;;21.17;78.58
19086;BME280;9675;51.538;6.728;2023-07-20T00:41:29;100997.91;;;21.15;79.14
19086;BME280;9675;51.538;6.728;2023-07-20T00:43:57;100992.59;;;21.12;79.76
19086;BME280;9675;51.538;6.728;2023-07-20T00:46:25;100999.56;;;21.10;79.98
19086;BME280;9675;51.538;6.728;2023-07-20T00:48:53;101007.44;;;21.08;80.16
19086;BME280;9675;51.538;6.728;2023-07-20T00:51:21;101009.16;;;21.08;80.83
19086;BME280;9675;51.538;6.728;2023-07-20T00:53:51;101009.13;;;21.05;81.65
19086;BME280;9675;51.538;6.728;2023-07-20T00:56:19;100999.47;;;21.01;81.54
19086;BME280;9675;51.538;6.728;2023-07-20T00:58:46;101001.19;;;20.99;82.75
19086;BME280;9675;51.538;6.728;2023-07-20T01:01:13;100994.19;;;20.95;83.35
19086;BME280;9675;51.538;6.728;2023-07-20T01:03:41;100993.31;;;20.96;83.76
19086;BME280;9675;51.538;6.728;2023-07-20T01:06:21;100992.41;;;20.94;82.52
19086;BME280;9675;51.538;6.728;2023-07-20T01:09:13;101000.28;;;20.92;83.80
19086;BME280;9675;51.538;6.728;2023-07-20T01:11:50;100995.88;;;20.90;83.41
19086;BME280;9675;51.538;6.728;2023-07-20T01:14:19;100997.63;;;20.88;82.84
19086;BME280;9675;51.538;6.728;2023-07-20T01:16:46;100994.97;;;20.86;83.71
19086;BME280;9675;51.538;6.728;2023-07-20T01:19:15;101001.03;;;20.84;84.21
19086;BME280;9675;51.538;6.728;2023-07-20T01:21:50;100999.28;;;20.81;83.52
19086;BME280;9675;51.538;6.728;2023-07-20T01:24:52;101003.63;;;20.77;84.65
19086;BME280;9675;51.538;6.728;2023-07-20T01:27:49;100999.19;;;20.73;86.04
19086;BME280;9675;51.538;6.728;2023-07-20T01:30:46;101001.78;;;20.70;86.18
19086;BME280;9675;51.538;6.728;2023-07-20T01:33:20;100995.66;;;20.68;86.32
19086;BME280;9675;51.538;6.728;2023-07-20T01:35:54;100991.28;;;20.66;87.59
19086;BME280;9675;51.538;6.728;2023-07-20T01:38:24;100999.97;;;20.62;89.20
19086;BME280;9675;51.538;6.728;2023-07-20T01:40:52;101005.16;;;20.60;88.02
19086;BME280;9675;51.538;6.728;2023-07-20T01:43:20;100995.56;;;20.59;87.92
19086;BME280;9675;51.538;6.728;2023-07-20T01:45:47;101002.50;;;20.57;88.76
19086;BME280;9675;51.538;6.728;2023-07-20T01:48:14;101000.78;;;20.56;89.96
19086;BME280;9675;51.538;6.728;2023-07-20T01:50:43;100997.22;;;20.53;91.92
19086;BME280;9675;51.538;6.728;2023-07-20T01:53:10;101005.94;;;20.50;91.33
19086;BME280;9675;51.538;6.728;2023-07-20T01:55:37;100999.78;;;20.48;93.20
19086;BME280;9675;51.538;6.728;2023-07-20T01:58:04;100998.03;;;20.46;95.09
19086;BME280;9675;51.538;6.728;2023-07-20T02:00:32;101003.19;;;20.43;98.88
19086;BME280;9675;51.538;6.728;2023-07-20T02:02:59;101005.81;;;20.41;99.53
19086;BME280;9675;51.538;6.728;2023-07-20T02:05:26;101003.19;;;20.40;100.00
19086;BME280;9675;51.538;6.728;2023-07-20T02:07:54;101011.00;;;20.38;100.00
19086;BME280;9675;51.538;6.728;2023-07-20T02:10:21;101011.81;;;20.34;100.00
19086;BME280;9675;51.538;6.728;2023-07-20T02:12:48;101013.56;;;20.33;100.00
19086;BME280;9675;51.538;6.728;2023-07-20T02:15:15;101014.41;;;20.32;100.00
19086;BME280;9675;51.538;6.728;2023-07-20T02:17:42;101005.63;;;20.29;100.00
19086;BME280;9675;51.538;6.728;2023-07-20T02:20:10;101009.09;;;20.28;100.00
19086;BME280;9675;51.538;6.728;2023-07-20T02:22:38;101003.84;;;20.25;100.00
19086;BME280;9675;51.538;6.728;2023-07-20T02:25:08;101007.25;;;20.21;100.00
19086;BME280;9675;51.538;6.728;2023-07-20T02:27:35;101010.75;;;20.20;100.00
19086;BME280;9675;51.538;6.728;2023-07-20T02:30:04;101015.03;;;20.15;100.00
19086;BME280;9675;51.538;6.728;2023-07-20T02:32:32;101012.38;;;20.13;100.00
19086;BME280;9675;51.538;6.728;2023-07-20T02:34:59;101010.59;;;20.11;100.00
19086;BME280;9675;51.538;6.728;2023-07-20T02:37:26;101008.88;;;20.10;100.00
19086;BME280;9675;51.538;6.728;2023-07-20T02:39:53;101007.03;;;20.06;100.00
19086;BME280;9675;51.538;6.728;2023-07-20T02:42:21;101005.25;;;20.02;100.00
19086;BME280;9675;51.538;6.728;2023-07-20T02:44:49;101011.38;;;20.02;100.00
19086;BME280;9675;51.538;6.728;2023-07-20T02:47:16;101015.69;;;20.00;100.00
19086;BME280;9675;51.538;6.728;2023-07-20T02:49:43;101016.53;;;19.98;100.00
19086;BME280;9675;51.538;6.728;2023-07-20T02:52:10;101009.50;;;19.95;100.00
19086;BME280;9675;51.538;6.728;2023-07-20T02:54:37;101017.34;;;19.93;100.00
19086;BME280;9675;51.538;6.728;2023-07-20T02:57:05;101012.06;;;19.90;100.00
19086;BME280;9675;51.538;6.728;2023-07-20T02:59:33;101018.13;;;19.88;100.00
19086;BME280;9675;51.538;6.728;2023-07-20T03:02:01;101030.28;;;19.86;100.00
19086;BME280;9675;51.538;6.728;2023-07-20T03:04:28;101018.94;;;19.82;100.00
19086;BME280;9675;51.538;6.728;2023-07-20T03:06:55;101024.97;;;19.78;100.00
19086;BME280;9675;51.538;6.728;2023-07-20T03:09:22;101029.28;;;19.76;100.00
19086;BME280;9675;51.538;6.728;2023-07-20T03:11:50;101028.38;;;19.74;100.00
19086;BME280;9675;51.538;6.728;2023-07-20T03:14:17;101030.94;;;19.71;100.00
19086;BME280;9675;51.538;6.728;2023-07-20T03:16:45;101024.84;;;19.71;100.00
19086;BME280;9675;51.538;6.728;2023-07-20T03:19:12;101028.31;;;19.68;100.00
19086;BME280;9675;51.538;6.728;2023-07-20T03:21:39;101029.13;;;19.66;100.00
19086;BME280;9675;51.538;6.728;2023-07-20T03:24:07;101032.56;;;19.63;100.00
19086;BME280;9675;51.538;6.728;2023-07-20T03:26:34;101037.72;;;19.60;100.00
19086;BME280;9675;51.538;6.728;2023-07-20T03:29:04;101034.25;;;19.58;100.00
19086;BME280;9675;51.538;6.728;2023-07-20T03:31:32;101039.47;;;19.58;100.00
19086;BME280;9675;51.538;6.728;2023-07-20T03:34:00;101036.78;;;19.55;100.00
19086;BME280;9675;51.538;6.728;2023-07-20T03:36:27;101042.84;;;19.54;100.00
19086;BME280;9675;51.538;6.728;2023-07-20T03:38:54;101037.59;;;19.51;100.00
19086;BME280;9675;51.538;6.728;2023-07-20T03:41:21;101044.50;;;19.47;100.00
19086;BME280;9675;51.538;6.728;2023-07-20T03:43:48;101046.19;;;19.45;100.00
19086;BME280;9675;51.538;6.728;2023-07-20T03:46:16;101047.94;;;19.45;100.00
19086;BME280;9675;51.538;6.728;2023-07-20T03:48:44;101047.88;;;19.43;100.00
19086;BME280;9675;51.538;6.728;2023-07-20T03:51:12;101053.09;;;19.42;100.00
19086;BME280;9675;51.538;6.728;2023-07-20T03:53:39;101060.00;;;19.40;100.00
19086;BME280;9675;51.538;6.728;2023-07-20T03:56:06;101053.00;;;19.39;100.00
19086;BME280;9675;51.538;6.728;2023-07-20T03:58:33;101052.16;;;19.40;100.00
19086;BME280;9675;51.538;6.728;2023-07-20T04:01:00;101051.25;;;19.38;100.00
19086;BME280;9675;51.538;6.728;2023-07-20T04:03:27;101052.16;;;19.40;100.00
19086;BME280;9675;51.538;6.728;2023-07-20T04:05:55;101046.91;;;19.38;100.00
19086;BME280;9675;51.538;6.728;2023-07-20T04:08:24;101057.31;;;19.35;100.00
19086;BME280;9675;51.538;6.728;2023-07-20T04:10:51;101063.34;;;19.33;100.00
19086;BME280;9675;51.538;6.728;2023-07-20T04:13:18;101062.50;;;19.32;100.00
19086;BME280;9675;51.538;6.728;2023-07-20T04:15:45;101059.84;;;19.31;100.00
19086;BME280;9675;51.538;6.728;2023-07-20T04:18:12;101062.44;;;19.29;100.00
19086;BME280;9675;51.538;6.728;2023-07-20T04:20:39;101062.38;;;19.26;100.00
19086;BME280;9675;51.538;6.728;2023-07-20T04:23:06;101070.19;;;19.25;100.00
19086;BME280;9675;51.538;6.728;2023-07-20T04:25:35;101067.53;;;19.23;100.00
19086;BME280;9675;51.538;6.728;2023-07-20T04:28:05;101064.91;;;19.23;100.00
19086;BME280;9675;51.538;6.728;2023-07-20T04:30:34;101066.66;;;19.21;100.00
19086;BME280;9675;51.538;6.728;2023-07-20T04:33:02;101065.81;;;19.22;100.00
19086;BME280;9675;51.538;6.728;2023-07-20T04:35:48;101075.31;;;19.20;100.00
19086;BME280;9675;51.538;6.728;2023-07-20T04:38:16;101072.75;;;19.22;100.00
19086;BME280;9675;51.538;6.728;2023-07-20T04:40:45;101073.59;;;19.21;100.00
19086;BME280;9675;51.538;6.728;2023-07-20T04:43:12;101078.75;;;19.18;100.00
19086;BME280;9675;51.538;6.728;2023-07-20T04:45:39;101080.47;;;19.16;100.00
19086;BME280;9675;51.538;6.728;2023-07-20T04:48:09;101082.16;;;19.14;100.00
19086;BME280;9675;51.538;6.728;2023-07-20T04:50:37;101089.03;;;19.08;100.00
19086;BME280;9675;51.538;6.728;2023-07-20T04:53:04;101091.63;;;19.08;100.00
19086;BME280;9675;51.538;6.728;2023-07-20T04:55:31;101096.81;;;19.07;100.00
19086;BME280;9675;51.538;6.728;2023-07-20T04:58:01;101092.44;;;19.04;100.00
19086;BME280;9675;51.538;6.728;2023-07-20T05:00:29;101101.09;;;19.03;100.00
19086;BME280;9675;51.538;6.728;2023-07-20T05:02:56;101102.00;;;19.04;100.00
19086;BME280;9675;51.538;6.728;2023-07-20T05:05:23;101099.34;;;19.02;100.00
19086;BME280;9675;51.538;6.728;2023-07-20T05:07:50;101094.06;;;18.99;100.00
19086;BME280;9675;51.538;6.728;2023-07-20T05:10:18;101097.59;;;19.01;100.00
19086;BME280;9675;51.538;6.728;2023-07-20T05:12:45;101103.69;;;19.02;100.00
19086;BME280;9675;51.538;6.728;2023-07-20T05:15:13;101102.75;;;18.98;100.00
19086;BME280;9675;51.538;6.728;2023-07-20T05:17:40;101102.75;;;18.98;100.00
19086;BME280;9675;51.538;6.728;2023-07-20T05:20:08;101111.44;;;18.97;100.00
19086;BME280;9675;51.538;6.728;2023-07-20T05:22:38;101096.59;;;18.96;100.00
19086;BME280;9675;51.538;6.728;2023-07-20T05:25:07;101100.97;;;18.97;100.00
19086;BME280;9675;51.538;6.728;2023-07-20T05:27:36;101103.59;;;18.96;100.00
19086;BME280;9675;51.538;6.728;2023-07-20T05:30:05;101104.44;;;18.95;100.00
19086;BME280;9675;51.538;6.728;2023-07-20T05:32:34;101098.38;;;18.96;100.00
19086;BME280;9675;51.538;6.728;2023-07-20T05:35:01;101105.31;;;18.97;100.00
19086;BME280;9675;51.538;6.728;2023-07-20T05:37:29;101109.66;;;18.96;100.00
19086;BME280;9675;51.538;6.728;2023-07-20T05:39:57;101109.66;;;18.96;100.00
19086;BME280;9675;51.538;6.728;2023-07-20T05:42:24;101114.81;;;18.93;100.00
19086;BME280;9675;51.538;6.728;2023-07-20T05:44:51;101105.28;;;18.94;100.00
19086;BME280;9675;51.538;6.728;2023-07-20T05:47:19;101122.69;;;18.95;100.00
19086;BME280;9675;51.538;6.728;2023-07-20T05:49:48;101123.53;;;18.94;100.00
19086;BME280;9675;51.538;6.728;2023-07-20T05:52:15;101125.22;;;18.92;100.00
19086;BME280;9675;51.538;6.728;2023-07-20T05:54:42;101127.84;;;18.90;100.00
19086;BME280;9675;51.538;6.728;2023-07-20T05:57:09;101133.91;;;18.89;100.00
19086;BME280;9675;51.538;6.728;2023-07-20T05:59:36;101135.66;;;18.90;100.00
19086;BME280;9675;51.538;6.728;2023-07-20T06:02:04;101129.56;;;18.91;100.00
19086;BME280;9675;51.538;6.728;2023-07-20T06:04:31;101135.72;;;18.93;100.00
19086;BME280;9675;51.538;6.728;2023-07-20T06:07:00;101138.31;;;18.93;100.00
19086;BME280;9675;51.538;6.728;2023-07-20T06:09:27;101137.44;;;18.93;100.00
19086;BME280;9675;51.538;6.728;2023-07-20T06:11:55;101137.41;;;18.91;100.00
19086;BME280;9675;51.538;6.728;2023-07-20T06:14:22;101136.53;;;18.91;100.00
19086;BME280;9675;51.538;6.728;2023-07-20T06:16:49;101135.66;;;18.90;100.00
19086;BME280;9675;51.538;6.728;2023-07-20T06:19:16;101145.25;;;18.93;100.00
19086;BME280;9675;51.538;6.728;2023-07-20T06:21:44;101148.72;;;18.92;100.00
19086;BME280;9675;51.538;6.728;2023-07-20T06:24:12;101137.41;;;18.91;100.00
19086;BME280;9675;51.538;6.728;2023-07-20T06:26:39;101140.94;;;18.93;100.00
19086;BME280;9675;51.538;6.728;2023-07-20T06:29:07;101140.13;;;18.96;100.00
19086;BME280;9675;51.538;6.728;2023-07-20T06:31:35;101151.41;;;18.96;100.00
19086;BME280;9675;51.538;6.728;2023-07-20T06:34:02;101146.19;;;18.96;100.00
19086;BME280;9675;51.538;6.728;2023-07-20T06:36:29;101147.06;;;18.95;100.00
19086;BME280;9675;51.538;6.728;2023-07-20T06:38:56;101151.41;;;18.96;100.00
19086;BME280;9675;51.538;6.728;2023-07-20T06:41:25;101144.50;;;18.98;100.00
19086;BME280;9675;51.538;6.728;2023-07-20T06:43:52;101146.31;;;19.01;100.00
19086;BME280;9675;51.538;6.728;2023-07-20T06:46:24;101149.03;;;19.05;100.00
19086;BME280;9675;51.538;6.728;2023-07-20T06:48:51;101148.19;;;19.06;100.00
19086;BME280;9675;51.538;6.728;2023-07-20T06:51:19;101143.88;;;19.10;100.00
19086;BME280;9675;51.538;6.728;2023-07-20T06:53:46;101149.16;;;19.13;100.00
19086;BME280;9675;51.538;6.728;2023-07-20T06:56:13;101144.81;;;19.14;100.00
19086;BME280;9675;51.538;6.728;2023-07-20T06:58:42;101143.13;;;19.16;100.00
19086;BME280;9675;51.538;6.728;2023-07-20T07:01:09;101143.16;;;19.19;100.00
19086;BME280;9675;51.538;6.728;2023-07-20T07:03:36;101146.69;;;19.21;100.00
19086;BME280;9675;51.538;6.728;2023-07-20T07:06:03;101154.59;;;19.24;100.00
19086;BME280;9675;51.538;6.728;2023-07-20T07:08:30;101153.78;;;19.26;100.00
19086;BME280;9675;51.538;6.728;2023-07-20T07:10:57;101156.47;;;19.31;100.00
19086;BME280;9675;51.538;6.728;2023-07-20T07:13:24;101154.78;;;19.34;100.00
19086;BME280;9675;51.538;6.728;2023-07-20T07:15:53;101164.38;;;19.35;100.00
19086;BME280;9675;51.538;6.728;2023-07-20T07:18:20;101160.94;;;19.38;100.00
19086;BME280;9675;51.538;6.728;2023-07-20T07:20:51;101171.47;;;19.41;100.00
19086;BME280;9675;51.538;6.728;2023-07-20T07:23:19;101169.78;;;19.43;100.00
19086;BME280;9675;51.538;6.728;2023-07-20T07:25:46;101169.84;;;19.46;100.00
19086;BME280;9675;51.538;6.728;2023-07-20T07:28:13;101175.13;;;19.47;100.00
19086;BME280;9675;51.538;6.728;2023-07-20T07:30:41;101172.50;;;19.47;100.00
19086;BME280;9675;51.538;6.728;2023-07-20T07:33:09;101181.25;;;19.51;100.00
19086;BME280;9675;51.538;6.728;2023-07-20T07:35:36;101178.69;;;19.54;100.00
19086;BME280;9675;51.538;6.728;2023-07-20T07:38:03;101176.97;;;19.55;100.00
19086;BME280;9675;51.538;6.728;2023-07-20T07:40:31;101182.22;;;19.56;100.00
19086;BME280;9675;51.538;6.728;2023-07-20T07:42:58;101177.06;;;19.59;100.00
19086;BME280;9675;51.538;6.728;2023-07-20T07:45:25;101180.59;;;19.61;100.00
19086;BME280;9675;51.538;6.728;2023-07-20T07:47:52;101178.91;;;19.63;100.00
19086;BME280;9675;51.538;6.728;2023-07-20T07:50:20;101183.28;;;19.66;100.00
19086;BME280;9675;51.538;6.728;2023-07-20T07:52:47;101187.63;;;19.65;100.00
19086;BME280;9675;51.538;6.728;2023-07-20T07:55:14;101185.94;;;19.67;100.00
19086;BME280;9675;51.538;6.728;2023-07-20T07:57:43;101192.03;;;19.69;100.00
19086;BME280;9675;51.538;6.728;2023-07-20T08:00:12;101198.19;;;19.71;100.00
19086;BME280;9675;51.538;6.728;2023-07-20T08:02:41;101200.00;;;19.75;100.00
19086;BME280;9675;51.538;6.728;2023-07-20T08:05:09;101200.97;;;19.80;100.00
19086;BME280;9675;51.538;6.728;2023-07-20T08:07:38;101196.69;;;19.85;100.00
19086;BME280;9675;51.538;6.728;2023-07-20T08:10:07;101202.03;;;19.91;100.00
19086;BME280;9675;51.538;6.728;2023-07-20T08:12:34;101201.19;;;19.92;100.00
19086;BME280;9675;51.538;6.728;2023-07-20T08:15:02;101206.44;;;19.95;100.00
19086;BME280;9675;51.538;6.728;2023-07-20T08:17:29;101204.75;;;19.98;100.00
19086;BME280;9675;51.538;6.728;2023-07-20T08:19:56;101210.91;;;20.00;100.00
19086;BME280;9675;51.538;6.728;2023-07-20T08:22:23;101203.94;;;20.02;100.00
19086;BME280;9675;51.538;6.728;2023-07-20T08:24:51;101210.13;;;20.07;100.00
19086;BME280;9675;51.538;6.728;2023-07-20T08:27:18;101212.81;;;20.11;100.00
19086;BME280;9675;51.538;6.728;2023-07-20T08:29:45;101208.50;;;20.13;100.00
19086;BME280;9675;51.538;6.728;2023-07-20T08:32:13;101207.66;;;20.16;98.93
19086;BME280;9675;51.538;6.728;2023-07-20T08:34:41;101203.38;;;20.19;97.01
19086;BME280;9675;51.538;6.728;2023-07-20T08:37:08;101208.72;;;20.25;98.36
19086;BME280;9675;51.538;6.728;2023-07-20T08:39:36;101209.78;;;20.35;97.13
19086;BME280;9675;51.538;6.728;2023-07-20T08:42:06;101209.00;;;20.41;94.48
19086;BME280;9675;51.538;6.728;2023-07-20T08:44:34;101210.84;;;20.49;93.49
19086;BME280;9675;51.538;6.728;2023-07-20T08:47:02;101201.38;;;20.57;90.77
19086;BME280;9675;51.538;6.728;2023-07-20T08:49:32;101208.50;;;20.66;88.82
19086;BME280;9675;51.538;6.728;2023-07-20T08:52:00;101213.00;;;20.76;87.64
19086;BME280;9675;51.538;6.728;2023-07-20T08:54:30;101209.66;;;20.86;85.51
19086;BME280;9675;51.538;6.728;2023-07-20T08:57:02;101214.19;;;20.98;83.45
19086;BME280;9675;51.538;6.728;2023-07-20T08:59:32;101212.53;;;21.06;83.27
19086;BME280;9675;51.538;6.728;2023-07-20T09:02:04;101211.81;;;21.16;81.72
19086;BME280;9675;51.538;6.728;2023-07-20T09:04:32;101218.88;;;21.22;81.70
19086;BME280;9675;51.538;6.728;2023-07-20T09:07:00;101212.81;;;21.27;79.99
19086;BME280;9675;51.538;6.728;2023-07-20T09:09:27;101208.53;;;21.34;79.06
19086;BME280;9675;51.538;6.728;2023-07-20T09:11:54;101217.34;;;21.42;77.72
19086;BME280;9675;51.538;6.728;2023-07-20T09:14:23;101206.06;;;21.47;75.86
19086;BME280;9675;51.538;6.728;2023-07-20T09:16:54;101211.41;;;21.56;74.80
19086;BME280;9675;51.538;6.728;2023-07-20T09:19:22;101207.13;;;21.65;73.67
19086;BME280;9675;51.538;6.728;2023-07-20T09:21:51;101211.59;;;21.75;71.47
19086;BME280;9675;51.538;6.728;2023-07-20T09:24:20;101206.44;;;21.84;70.45
19086;BME280;9675;51.538;6.728;2023-07-20T09:26:48;101205.69;;;21.94;68.61
19086;BME280;9675;51.538;6.728;2023-07-20T09:29:18;101208.41;;;22.03;67.88
19086;BME280;9675;51.538;6.728;2023-07-20T09:31:59;101211.06;;;22.08;67.27
19086;BME280;9675;51.538;6.728;2023-07-20T09:34:29;101211.97;;;22.10;65.36
19086;BME280;9675;51.538;6.728;2023-07-20T09:36:57;101208.50;;;22.15;62.94
19086;BME280;9675;51.538;6.728;2023-07-20T09:39:24;101210.34;;;22.25;63.05
19086;BME280;9675;51.538;6.728;2023-07-20T09:41:52;101204.28;;;22.34;61.60
19086;BME280;9675;51.538;6.728;2023-07-20T09:44:20;101201.75;;;22.46;61.15
19086;BME280;9675;51.538;6.728;2023-07-20T09:46:48;101207.06;;;22.57;60.72
19086;BME280;9675;51.538;6.728;2023-07-20T09:49:17;101198.38;;;22.64;60.00
19086;BME280;9675;51.538;6.728;2023-07-20T09:51:45;101193.19;;;22.71;59.16
19086;BME280;9675;51.538;6.728;2023-07-20T09:54:13;101196.72;;;22.81;58.73
19086;BME280;9675;51.538;6.728;2023-07-20T09:56:42;101191.56;;;22.93;58.23
19086;BME280;9675;51.538;6.728;2023-07-20T09:59:09;101194.22;;;23.07;57.83
19086;BME280;9675;51.538;6.728;2023-07-20T10:01:39;101189.91;;;23.19;57.27
19086;BME280;9675;51.538;6.728;2023-07-20T10:04:11;101189.94;;;23.28;56.77
19086;BME280;9675;51.538;6.728;2023-07-20T10:06:43;101183.84;;;23.40;55.75
19086;BME280;9675;51.538;6.728;2023-07-20T10:09:15;101189.16;;;23.55;55.49
19086;BME280;9675;51.538;6.728;2023-07-20T10:11:49;101181.28;;;23.69;55.16
19086;BME280;9675;51.538;6.728;2023-07-20T10:14:20;101181.31;;;23.81;55.51
19086;BME280;9675;51.538;6.728;2023-07-20T10:16:51;101192.72;;;23.94;54.77
19086;BME280;9675;51.538;6.728;2023-07-20T10:19:25;101188.34;;;24.06;53.90
19086;BME280;9675;51.538;6.728;2023-07-20T10:22:00;101191.88;;;24.22;53.09
19086;BME280;9675;51.538;6.728;2023-07-20T10:24:32;101189.22;;;24.36;52.77
19086;BME280;9675;51.538;6.728;2023-07-20T10:27:00;101190.97;;;24.49;52.64
19086;BME280;9675;51.538;6.728;2023-07-20T10:29:28;101183.94;;;24.60;52.75
19086;BME280;9675;51.538;6.728;2023-07-20T10:31:56;101187.41;;;24.67;53.18
19086;BME280;9675;51.538;6.728;2023-07-20T10:34:24;101178.66;;;24.71;52.64
19086;BME280;9675;51.538;6.728;2023-07-20T10:36:51;101177.75;;;24.76;51.38
19086;BME280;9675;51.538;6.728;2023-07-20T10:39:25;101171.56;;;24.86;50.70
19086;BME280;9675;51.538;6.728;2023-07-20T10:42:01;101175.03;;;25.01;50.64
19086;BME280;9675;51.538;6.728;2023-07-20T10:44:30;101183.78;;;25.10;50.71
19086;BME280;9675;51.538;6.728;2023-07-20T10:47:01;101166.19;;;25.17;50.16
19086;BME280;9675;51.538;6.728;2023-07-20T10:49:33;101159.97;;;25.24;49.67
19086;BME280;9675;51.538;6.728;2023-07-20T10:52:05;101165.22;;;25.33;48.91
19086;BME280;9675;51.538;6.728;2023-07-20T10:54:47;101166.00;;;25.46;49.13
19086;BME280;9675;51.538;6.728;2023-07-20T10:57:31;101167.75;;;25.59;48.56
19086;BME280;9675;51.538;6.728;2023-07-20T11:00:10;101167.66;;;25.69;48.50
19086;BME280;9675;51.538;6.728;2023-07-20T11:02:45;101166.72;;;25.79;47.88
19086;BME280;9675;51.538;6.728;2023-07-20T11:05:36;101156.03;;;25.92;47.81
19086;BME280;9675;51.538;6.728;2023-07-20T11:08:11;101155.94;;;26.02;47.15
19086;BME280;9675;51.538;6.728;2023-07-20T11:10:40;101155.84;;;26.16;47.11
19086;BME280;9675;51.538;6.728;2023-07-20T11:13:21;101148.66;;;26.33;47.42
19086;BME280;9675;51.538;6.728;2023-07-20T11:16:04;101157.34;;;26.44;47.10
19086;BME280;9675;51.538;6.728;2023-07-20T11:18:34;101152.00;;;26.50;46.89
19086;BME280;9675;51.538;6.728;2023-07-20T11:21:10;101133.50;;;26.50;45.95
19086;BME280;9675;51.538;6.728;2023-07-20T11:23:39;101142.25;;;26.55;45.39
19086;BME280;9675;51.538;6.728;2023-07-20T11:26:08;101140.44;;;26.62;44.86
19086;BME280;9675;51.538;6.728;2023-07-20T11:28:35;101137.72;;;26.67;44.55
19086;BME280;9675;51.538;6.728;2023-07-20T11:31:02;101131.38;;;26.80;43.82
19086;BME280;9675;51.538;6.728;2023-07-20T11:33:29;101134.78;;;26.94;44.17
19086;BME280;9675;51.538;6.728;2023-07-20T11:35:56;101134.66;;;27.01;43.39
19086;BME280;9675;51.538;6.728;2023-07-20T11:38:24;101133.69;;;27.09;43.27
19086;BME280;9675;51.538;6.728;2023-07-20T11:40:52;101130.97;;;27.15;43.14
19086;BME280;9675;51.538;6.728;2023-07-20T11:43:20;101131.75;;;27.21;43.38
19086;BME280;9675;51.538;6.728;2023-07-20T11:45:50;101136.94;;;27.27;42.86
19086;BME280;9675;51.538;6.728;2023-07-20T11:48:17;101129.00;;;27.30;42.67
19086;BME280;9675;51.538;6.728;2023-07-20T11:50:44;101128.00;;;27.37;42.78
19086;BME280;9675;51.538;6.728;2023-07-20T11:53:12;101123.44;;;27.47;42.41
19086;BME280;9675;51.538;6.728;2023-07-20T11:55:40;101124.16;;;27.60;42.54
19086;BME280;9675;51.538;6.728;2023-07-20T11:58:09;101127.53;;;27.68;42.97
19086;BME280;9675;51.538;6.728;2023-07-20T12:00:39;101122.22;;;27.71;42.71
19086;BME280;9675;51.538;6.728;2023-07-20T12:03:07;101114.19;;;27.75;42.13
19086;BME280;9675;51.538;6.728;2023-07-20T12:05:34;101122.00;;;27.83;42.42
19086;BME280;9675;51.538;6.728;2023-07-20T12:08:01;101110.41;;;27.90;42.32
19086;BME280;9675;51.538;6.728;2023-07-20T12:10:28;101105.84;;;27.98;41.39
19086;BME280;9675;51.538;6.728;2023-07-20T12:13:01;101111.00;;;28.07;40.78
19086;BME280;9675;51.538;6.728;2023-07-20T12:15:30;101104.75;;;28.10;40.69
19086;BME280;9675;51.538;6.728;2023-07-20T12:18:01;101110.84;;;28.18;39.89
19086;BME280;9675;51.538;6.728;2023-07-20T12:20:30;101106.25;;;28.27;40.37
19086;BME280;9675;51.538;6.728;2023-07-20T12:23:00;101106.94;;;28.37;40.66
19086;BME280;9675;51.538;6.728;2023-07-20T12:25:37;101092.63;;;28.46;39.93
19086;BME280;9675;51.538;6.728;2023-07-20T12:28:09;101099.44;;;28.59;40.09
19086;BME280;9675;51.538;6.728;2023-07-20T12:30:36;101101.00;;;28.67;40.03
19086;BME280;9675;51.538;6.728;2023-07-20T12:33:06;101101.81;;;28.71;39.73
19086;BME280;9675;51.538;6.728;2023-07-20T12:35:33;101103.56;;;28.75;39.82
19086;BME280;9675;51.538;6.728;2023-07-20T12:38:01;101099.97;;;28.76;39.95
19086;BME280;9675;51.538;6.728;2023-07-20T12:40:28;101106.16;;;28.77;39.38
19086;BME280;9675;51.538;6.728;2023-07-20T12:42:57;101114.06;;;28.78;39.38
19086;BME280;9675;51.538;6.728;2023-07-20T12:45:24;101095.53;;;28.77;39.32
19086;BME280;9675;51.538;6.728;2023-07-20T12:47:51;101099.03;;;28.79;39.19
19086;BME280;9675;51.538;6.728;2023-07-20T12:50:20;101094.63;;;28.79;39.19
19086;BME280;9675;51.538;6.728;2023-07-20T12:52:48;101088.34;;;28.83;38.76
19086;BME280;9675;51.538;6.728;2023-07-20T12:55:15;101087.34;;;28.89;38.63
19086;BME280;9675;51.538;6.728;2023-07-20T12:57:43;101097.88;;;28.92;38.49
19086;BME280;9675;51.538;6.728;2023-07-20T13:00:11;101090.84;;;28.91;38.00
19086;BME280;9675;51.538;6.728;2023-07-20T13:02:39;101094.25;;;28.96;37.78
19086;BME280;9675;51.538;6.728;2023-07-20T13:05:08;101089.75;;;28.99;38.19